createdAt,value
2019-03-05T00:00:30.298Z,996.23
2019-03-05T00:01:30.278Z,996.20
2019-03-05T00:02:30.250Z,996.21
2019-03-05T00:03:30.271Z,996.12
2019-03-05T00:04:30.263Z,996.21
2019-03-05T00:05:30.231Z,996.14
2019-03-05T00:06:30.217Z,996.15
2019-03-05T00:07:30.213Z,996.19
2019-03-05T00:08:30.207Z,996.12
2019-03-05T00:09:30.194Z,996.20
2019-03-05T00:10:30.204Z,996.18
2019-03-05T00:11:30.210Z,996.17
2019-03-05T00:12:30.177Z,996.16
2019-03-05T00:13:30.162Z,996.27
2019-03-05T00:14:30.151Z,996.12
2019-03-05T00:15:30.147Z,996.22
2019-03-05T00:16:30.142Z,996.31
2019-03-05T00:17:30.145Z,996.21
2019-03-05T00:18:30.130Z,996.26
2019-03-05T00:19:30.115Z,996.28
2019-03-05T00:20:30.092Z,996.28
2019-03-05T00:21:30.081Z,996.33
2019-03-05T00:22:30.079Z,996.26
2019-03-05T00:23:30.079Z,996.33
2019-03-05T00:24:30.085Z,996.33
2019-03-05T00:25:30.052Z,996.35
2019-03-05T00:26:30.040Z,996.36
2019-03-05T00:27:30.102Z,996.41
2019-03-05T00:28:30.034Z,996.32
2019-03-05T00:29:30.018Z,996.37
2019-03-05T00:30:30.016Z,996.38
2019-03-05T00:31:30.027Z,996.31
2019-03-05T00:32:29.987Z,996.35
2019-03-05T00:33:32.571Z,996.36
2019-03-05T00:34:29.973Z,996.41
2019-03-05T00:35:29.965Z,996.30
2019-03-05T00:36:29.956Z,996.33
2019-03-05T00:37:29.976Z,996.39
2019-03-05T00:38:29.953Z,996.36
2019-03-05T00:39:29.929Z,996.38
2019-03-05T00:40:29.920Z,996.36
2019-03-05T00:41:29.906Z,996.41
2019-03-05T00:42:29.901Z,996.39
2019-03-05T00:43:29.909Z,996.42
2019-03-05T00:44:29.905Z,996.44
2019-03-05T00:45:29.971Z,996.43
2019-03-05T00:46:29.870Z,996.40
2019-03-05T00:47:29.852Z,996.43
2019-03-05T00:48:29.854Z,996.48
2019-03-05T00:49:29.847Z,996.52
2019-03-05T00:50:29.839Z,996.48
2019-03-05T00:51:29.833Z,996.52
2019-03-05T00:52:29.817Z,996.57
2019-03-05T00:53:29.805Z,996.60
2019-03-05T00:54:29.796Z,996.61
2019-03-05T00:55:29.785Z,996.55
2019-03-05T00:56:29.797Z,996.46
2019-03-05T00:57:29.767Z,996.57
2019-03-05T00:58:29.763Z,996.59
2019-03-05T00:59:29.772Z,996.57
2019-03-05T01:00:29.743Z,996.69
2019-03-05T01:01:29.729Z,996.57
2019-03-05T01:02:29.728Z,996.62
2019-03-05T01:03:29.718Z,996.59
2019-03-05T01:04:29.714Z,996.62
2019-03-05T01:05:29.703Z,996.69
2019-03-05T01:06:29.688Z,996.71
2019-03-05T01:07:29.687Z,996.73
2019-03-05T01:08:29.705Z,996.71
2019-03-05T01:09:29.665Z,996.70
2019-03-05T01:10:29.679Z,996.73
2019-03-05T01:11:29.653Z,996.73
2019-03-05T01:12:29.638Z,996.71
2019-03-05T01:13:29.629Z,996.70
2019-03-05T01:14:29.620Z,996.72
2019-03-05T01:15:29.612Z,996.66
2019-03-05T01:16:29.615Z,996.78
2019-03-05T01:17:29.600Z,996.73
2019-03-05T01:18:29.590Z,996.72
2019-03-05T01:19:29.576Z,996.78
2019-03-05T01:20:29.569Z,996.77
2019-03-05T01:21:29.554Z,996.78
2019-03-05T01:22:29.563Z,996.78
2019-03-05T01:23:29.549Z,996.80
2019-03-05T01:24:29.536Z,996.77
2019-03-05T01:25:29.530Z,996.75
2019-03-05T01:26:29.517Z,996.77
2019-03-05T01:27:29.508Z,996.77
2019-03-05T01:28:29.509Z,996.76
2019-03-05T01:29:29.533Z,996.80
2019-03-05T01:30:29.475Z,996.80
2019-03-05T01:31:29.474Z,996.73
2019-03-05T01:32:38.110Z,996.78
2019-03-05T01:34:33.959Z,996.75
2019-03-05T01:35:33.915Z,996.78
2019-03-05T01:36:33.908Z,996.76
2019-03-05T01:37:33.908Z,996.80
2019-03-05T01:38:33.893Z,996.86
2019-03-05T01:39:33.881Z,996.77
2019-03-05T01:40:33.875Z,996.73
2019-03-05T01:41:33.879Z,996.80
2019-03-05T01:42:33.849Z,996.78
2019-03-05T01:43:33.859Z,996.78
2019-03-05T01:44:33.839Z,996.74
2019-03-05T01:45:33.826Z,996.74
2019-03-05T01:46:33.827Z,996.76
2019-03-05T01:47:33.817Z,996.71
2019-03-05T01:48:33.849Z,996.77
2019-03-05T01:49:33.796Z,996.73
2019-03-05T01:50:33.784Z,996.73
2019-03-05T01:51:33.774Z,996.75
2019-03-05T01:52:33.766Z,996.65
2019-03-05T01:53:33.757Z,996.69
2019-03-05T01:54:33.747Z,996.64
2019-03-05T01:55:33.742Z,996.74
2019-03-05T01:56:33.736Z,996.66
2019-03-05T01:57:33.719Z,996.67
2019-03-05T01:58:33.712Z,996.70
2019-03-05T01:59:33.706Z,996.67
2019-03-05T02:00:33.716Z,996.68
2019-03-05T02:01:33.699Z,996.63
2019-03-05T02:02:33.677Z,996.67
2019-03-05T02:03:33.670Z,996.71
2019-03-05T02:04:33.662Z,996.64
2019-03-05T02:05:33.648Z,996.64
2019-03-05T02:06:33.643Z,996.58
2019-03-05T02:07:33.634Z,996.58
2019-03-05T02:08:33.624Z,996.56
2019-03-05T02:09:33.639Z,996.58
2019-03-05T02:10:33.678Z,996.60
2019-03-05T02:11:33.605Z,996.51
2019-03-05T02:12:33.601Z,996.54
2019-03-05T02:13:33.587Z,996.56
2019-03-05T02:14:33.579Z,996.53
2019-03-05T02:15:33.561Z,996.50
2019-03-05T02:16:33.554Z,996.50
2019-03-05T02:17:33.545Z,996.52
2019-03-05T02:18:33.549Z,996.49
2019-03-05T02:19:33.532Z,996.45
2019-03-05T02:20:33.525Z,996.38
2019-03-05T02:21:33.545Z,996.49
2019-03-05T02:22:33.507Z,996.44
2019-03-05T02:23:33.496Z,996.48
2019-03-05T02:24:33.551Z,996.44
2019-03-05T02:25:33.480Z,996.46
2019-03-05T02:26:33.483Z,996.35
2019-03-05T02:27:33.458Z,996.39
2019-03-05T02:28:33.474Z,996.36
2019-03-05T02:29:33.441Z,996.39
2019-03-05T02:30:33.429Z,996.31
2019-03-05T02:31:33.430Z,996.34
2019-03-05T02:32:33.420Z,996.31
2019-03-05T02:33:33.408Z,996.29
2019-03-05T02:34:33.403Z,996.18
2019-03-05T02:35:33.389Z,996.23
2019-03-05T02:36:33.388Z,996.28
2019-03-05T02:37:33.368Z,996.26
2019-03-05T02:38:33.369Z,996.27
2019-03-05T02:39:33.358Z,996.26
2019-03-05T02:40:33.360Z,996.23
2019-03-05T02:41:33.345Z,996.23
2019-03-05T02:42:33.331Z,996.15
2019-03-05T02:43:33.321Z,996.16
2019-03-05T02:44:33.318Z,996.18
2019-03-05T02:45:33.305Z,996.20
2019-03-05T02:46:33.299Z,996.20
2019-03-05T02:47:33.286Z,996.21
2019-03-05T02:48:33.279Z,996.22
2019-03-05T02:49:33.265Z,996.22
2019-03-05T02:50:33.251Z,996.18
2019-03-05T02:51:33.256Z,996.17
2019-03-05T02:52:33.241Z,996.21
2019-03-05T02:53:33.226Z,996.21
2019-03-05T02:54:33.239Z,996.17
2019-03-05T02:55:33.215Z,996.11
2019-03-05T02:56:33.250Z,996.16
2019-03-05T02:57:33.242Z,996.16
2019-03-05T03:14:09.773Z,996.37
2019-03-05T03:15:09.724Z,996.36
2019-03-05T03:16:09.722Z,996.40
2019-03-05T03:17:09.709Z,996.39
2019-03-05T03:18:09.699Z,996.40
2019-03-05T03:19:09.681Z,996.41
2019-03-05T03:20:09.667Z,996.42
2019-03-05T03:21:09.682Z,996.40
2019-03-05T03:22:09.654Z,996.42
2019-03-05T03:23:09.628Z,996.46
2019-03-05T03:24:09.621Z,996.50
2019-03-05T03:25:09.612Z,996.39
2019-03-05T03:26:09.604Z,996.41
2019-03-05T03:27:09.610Z,996.42
2019-03-05T03:28:09.581Z,996.49
2019-03-05T03:29:09.569Z,996.47
2019-03-05T03:30:09.565Z,996.42
2019-03-05T03:31:09.572Z,996.48
2019-03-05T03:32:09.558Z,996.52
2019-03-05T03:33:09.545Z,996.44
2019-03-05T03:34:09.558Z,996.42
2019-03-05T03:35:09.524Z,996.49
2019-03-05T03:36:09.521Z,996.54
2019-03-05T03:37:09.499Z,996.53
2019-03-05T03:38:09.496Z,996.54
2019-03-05T03:39:09.495Z,996.52
2019-03-05T03:40:09.471Z,996.62
2019-03-05T03:41:09.460Z,996.62
2019-03-05T03:42:09.452Z,996.64
2019-03-05T03:43:09.446Z,996.58
2019-03-05T03:44:09.430Z,996.62
2019-03-05T03:45:09.429Z,996.66
2019-03-05T03:46:09.423Z,996.66
2019-03-05T03:47:09.422Z,996.62
2019-03-05T03:48:09.403Z,996.63
2019-03-05T03:49:09.404Z,996.65
2019-03-05T03:50:09.402Z,996.64
2019-03-05T03:51:09.373Z,996.63
2019-03-05T03:52:09.367Z,996.67
2019-03-05T03:53:09.356Z,996.68
2019-03-05T03:54:09.350Z,996.71
2019-03-05T03:55:09.358Z,996.69
2019-03-05T03:56:09.328Z,996.67
2019-03-05T03:57:09.322Z,996.66
2019-03-05T03:58:09.308Z,996.70
2019-03-05T03:59:09.301Z,996.70
2019-03-05T04:00:09.419Z,996.70
2019-03-05T04:01:09.291Z,996.72
2019-03-05T04:02:09.289Z,996.71
2019-03-05T04:03:09.266Z,996.68
2019-03-05T04:04:09.264Z,996.66
2019-03-05T04:05:09.243Z,996.72
2019-03-05T04:06:09.241Z,996.69
2019-03-05T04:07:09.242Z,996.69
2019-03-05T04:08:10.426Z,996.73
2019-03-05T04:09:09.213Z,996.66
2019-03-05T04:10:09.214Z,996.65
2019-03-05T04:11:09.193Z,996.69
2019-03-05T04:12:09.192Z,996.75
2019-03-05T04:13:09.178Z,996.74
2019-03-05T04:14:09.175Z,996.81
2019-03-05T04:15:09.163Z,996.77
2019-03-05T04:16:09.155Z,996.79
2019-03-05T04:17:09.147Z,996.83
2019-03-05T04:18:09.147Z,996.89
2019-03-05T04:19:09.141Z,996.85
2019-03-05T04:20:09.117Z,996.84
2019-03-05T04:21:09.123Z,996.90
2019-03-05T04:22:09.096Z,996.89
2019-03-05T04:23:09.090Z,996.91
2019-03-05T04:24:09.074Z,996.90
2019-03-05T04:25:09.065Z,996.86
2019-03-05T04:26:09.060Z,996.89
2019-03-05T04:27:09.051Z,996.85
2019-03-05T04:28:09.041Z,996.86
2019-03-05T04:29:09.033Z,996.87
2019-03-05T04:30:09.054Z,996.86
2019-03-05T04:31:09.022Z,996.91
2019-03-05T04:32:09.007Z,996.94
2019-03-05T04:33:08.995Z,996.93
2019-03-05T04:34:09.003Z,996.90
2019-03-05T04:35:08.984Z,996.90
2019-03-05T04:36:08.966Z,996.93
2019-03-05T04:37:08.958Z,996.92
2019-03-05T04:38:08.949Z,996.87
2019-03-05T04:39:08.944Z,996.95
2019-03-05T04:40:08.935Z,996.94
2019-03-05T04:41:08.945Z,996.92
2019-03-05T04:42:08.919Z,996.92
2019-03-05T04:43:08.907Z,996.94
2019-03-05T04:44:08.903Z,996.91
2019-03-05T04:45:08.890Z,996.91
2019-03-05T04:46:08.893Z,996.76
2019-03-05T04:47:08.887Z,996.80
2019-03-05T04:48:08.873Z,996.89
2019-03-05T04:49:08.851Z,996.91
2019-03-05T04:50:08.841Z,996.88
2019-03-05T04:51:08.840Z,996.93
2019-03-05T04:52:08.825Z,996.85
2019-03-05T04:53:08.828Z,996.95
2019-03-05T04:54:08.807Z,996.90
2019-03-05T04:55:08.803Z,996.91
2019-03-05T04:56:08.790Z,996.94
2019-03-05T04:57:08.779Z,996.88
2019-03-05T04:58:08.771Z,996.91
2019-03-05T04:59:08.763Z,996.93
2019-03-05T05:00:08.764Z,996.90
2019-03-05T05:01:08.754Z,996.86
2019-03-05T05:02:08.734Z,996.92
2019-03-05T05:03:08.729Z,996.92
2019-03-05T05:04:08.721Z,996.94
2019-03-05T05:05:08.711Z,996.94
2019-03-05T05:06:08.701Z,996.82
2019-03-05T05:07:08.703Z,996.93
2019-03-05T05:08:08.682Z,996.90
2019-03-05T05:09:08.677Z,996.92
2019-03-05T05:10:08.664Z,996.86
2019-03-05T05:11:08.663Z,996.91
2019-03-05T05:12:08.655Z,996.93
2019-03-05T05:13:08.670Z,996.95
2019-03-05T05:14:08.627Z,996.99
2019-03-05T05:15:08.624Z,997.02
2019-03-05T05:16:08.632Z,996.95
2019-03-05T05:17:08.617Z,997.03
2019-03-05T05:18:08.596Z,996.99
2019-03-05T05:19:08.584Z,996.93
2019-03-05T05:20:08.582Z,997.05
2019-03-05T05:21:08.603Z,997.00
2019-03-05T05:22:08.553Z,996.96
2019-03-05T05:23:08.553Z,997.03
2019-03-05T05:24:08.539Z,997.02
2019-03-05T05:25:08.529Z,997.02
2019-03-05T05:26:08.524Z,997.02
2019-03-05T05:27:08.511Z,997.00
2019-03-05T05:28:08.509Z,996.95
2019-03-05T05:29:08.492Z,996.95
2019-03-05T05:30:08.479Z,996.96
2019-03-05T05:31:08.484Z,996.94
2019-03-05T05:32:08.467Z,996.96
2019-03-05T05:33:08.475Z,996.91
2019-03-05T05:34:08.456Z,996.95
2019-03-05T05:35:08.439Z,996.93
2019-03-05T05:36:08.427Z,996.94
2019-03-05T05:37:08.428Z,996.90
2019-03-05T05:38:08.414Z,996.93
2019-03-05T05:39:08.422Z,996.96
2019-03-05T05:40:08.418Z,996.93
2019-03-05T05:41:08.390Z,996.88
2019-03-05T05:42:08.378Z,996.89
2019-03-05T05:43:08.376Z,996.89
2019-03-05T05:44:08.359Z,996.90
2019-03-05T05:45:08.368Z,996.89
2019-03-05T05:46:08.357Z,996.98
2019-03-05T05:47:08.340Z,996.90
2019-03-05T05:48:08.319Z,997.01
2019-03-05T05:49:08.321Z,996.97
2019-03-05T05:50:08.308Z,996.95
2019-03-05T05:51:08.313Z,996.98
2019-03-05T05:52:08.298Z,996.99
2019-03-05T05:53:08.299Z,997.01
2019-03-05T05:54:08.271Z,997.01
2019-03-05T05:55:08.265Z,996.97
2019-03-05T05:56:08.256Z,997.01
2019-03-05T05:57:08.246Z,996.96
2019-03-05T05:58:08.234Z,997.02
2019-03-05T05:59:08.240Z,997.02
2019-03-05T06:00:08.220Z,997.00
2019-03-05T06:01:08.205Z,996.97
2019-03-05T06:02:08.199Z,997.01
2019-03-05T06:03:08.187Z,997.01
2019-03-05T06:04:08.197Z,997.04
2019-03-05T06:05:08.179Z,997.04
2019-03-05T06:06:08.190Z,997.09
2019-03-05T06:07:16.816Z,997.09
2019-03-05T06:09:10.605Z,997.02
2019-03-05T06:10:10.185Z,997.05
2019-03-05T06:12:06.021Z,997.04
2019-03-05T06:13:05.978Z,997.06
2019-03-05T06:14:05.985Z,997.06
2019-03-05T06:15:05.962Z,996.96
2019-03-05T06:16:05.981Z,997.07
2019-03-05T06:17:05.945Z,997.07
2019-03-05T06:18:05.935Z,997.05
2019-03-05T06:19:05.930Z,997.06
2019-03-05T06:20:05.924Z,997.09
2019-03-05T06:21:05.950Z,997.07
2019-03-05T06:22:05.908Z,997.07
2019-03-05T06:23:05.891Z,997.11
2019-03-05T06:24:05.881Z,997.16
2019-03-05T06:25:05.876Z,997.20
2019-03-05T06:26:08.573Z,997.23
2019-03-05T06:27:05.856Z,997.27
2019-03-05T06:28:05.856Z,997.21
2019-03-05T06:29:05.849Z,997.22
2019-03-05T06:30:05.831Z,997.19
2019-03-05T06:31:05.819Z,997.19
2019-03-05T06:32:05.816Z,997.18
2019-03-05T06:33:05.815Z,997.17
2019-03-05T06:34:05.792Z,997.25
2019-03-05T06:35:05.781Z,997.24
2019-03-05T06:36:05.774Z,997.30
2019-03-05T06:37:05.770Z,997.25
2019-03-05T06:38:05.756Z,997.17
2019-03-05T06:39:05.743Z,997.35
2019-03-05T06:40:05.784Z,997.33
2019-03-05T06:41:05.730Z,997.40
2019-03-05T06:42:05.717Z,997.30
2019-03-05T06:43:05.718Z,997.29
2019-03-05T06:44:05.703Z,997.36
2019-03-05T06:45:05.689Z,997.33
2019-03-05T06:46:05.680Z,997.35
2019-03-05T06:47:05.684Z,997.32
2019-03-05T06:48:05.664Z,997.31
2019-03-05T06:49:05.659Z,997.39
2019-03-05T06:50:05.642Z,997.36
2019-03-05T06:51:05.632Z,997.42
2019-03-05T06:52:05.628Z,997.38
2019-03-05T06:53:05.619Z,997.42
2019-03-05T06:54:05.624Z,997.49
2019-03-05T06:55:05.606Z,997.43
2019-03-05T06:56:05.589Z,997.45
2019-03-05T06:57:05.598Z,997.53
2019-03-05T06:58:05.590Z,997.48
2019-03-05T06:59:05.568Z,997.53
2019-03-05T07:00:05.568Z,997.53
2019-03-05T07:01:05.568Z,997.51
2019-03-05T07:02:05.538Z,997.51
2019-03-05T07:03:05.553Z,997.52
2019-03-05T07:04:05.528Z,997.57
2019-03-05T07:05:05.552Z,997.51
2019-03-05T07:06:05.523Z,997.51
2019-03-05T07:07:05.519Z,997.55
2019-03-05T07:08:05.501Z,997.60
2019-03-05T07:09:05.490Z,997.56
2019-03-05T07:10:05.498Z,997.55
2019-03-05T07:11:05.476Z,997.64
2019-03-05T07:12:05.476Z,997.68
2019-03-05T07:13:05.472Z,997.59
2019-03-05T07:14:05.488Z,997.65
2019-03-05T07:15:05.472Z,997.65
2019-03-05T07:16:05.455Z,997.65
2019-03-05T07:17:05.401Z,997.73
2019-03-05T07:18:05.402Z,997.67
2019-03-05T07:19:05.394Z,997.67
2019-03-05T07:20:05.393Z,997.57
2019-03-05T07:21:05.396Z,997.63
2019-03-05T07:22:05.394Z,997.65
2019-03-05T07:23:05.382Z,997.62
2019-03-05T07:24:05.344Z,997.60
2019-03-05T07:25:05.336Z,997.61
2019-03-05T07:26:05.358Z,997.63
2019-03-05T07:27:05.373Z,997.67
2019-03-05T07:28:05.341Z,997.66
2019-03-05T07:29:05.296Z,997.64
2019-03-05T07:30:05.311Z,997.71
2019-03-05T07:31:05.323Z,997.70
2019-03-05T07:32:05.284Z,997.72
2019-03-05T07:33:05.278Z,997.70
2019-03-05T07:34:05.284Z,997.70
2019-03-05T07:35:05.326Z,997.72
2019-03-05T07:36:05.275Z,997.69
2019-03-05T07:37:05.231Z,997.76
2019-03-05T07:38:05.224Z,997.74
2019-03-05T07:39:05.232Z,997.74
2019-03-05T07:40:05.219Z,997.79
2019-03-05T07:41:05.226Z,997.74
2019-03-05T07:42:05.193Z,997.68
2019-03-05T07:43:05.181Z,997.75
2019-03-05T07:44:05.194Z,997.75
2019-03-05T07:45:05.166Z,997.76
2019-03-05T07:46:05.178Z,997.71
2019-03-05T07:47:05.172Z,997.74
2019-03-05T07:48:05.164Z,997.70
2019-03-05T07:49:05.127Z,997.78
2019-03-05T07:50:05.124Z,997.76
2019-03-05T07:51:05.170Z,997.80
2019-03-05T07:52:05.130Z,997.76
2019-03-05T07:53:05.162Z,997.77
2019-03-05T07:54:05.118Z,997.81
2019-03-05T07:55:13.221Z,997.81
2019-03-05T07:56:05.081Z,997.81
2019-03-05T07:57:05.071Z,997.76
2019-03-05T07:58:05.053Z,997.82
2019-03-05T07:59:05.051Z,997.81
2019-03-05T08:00:05.586Z,997.81
2019-03-05T08:01:05.039Z,997.86
2019-03-05T08:02:05.027Z,997.77
2019-03-05T08:03:05.029Z,997.79
2019-03-05T08:04:05.017Z,997.79
2019-03-05T08:05:04.996Z,997.81
2019-03-05T08:06:04.992Z,997.76
2019-03-05T08:07:04.991Z,997.81
2019-03-05T08:08:04.983Z,997.66
2019-03-05T08:09:04.967Z,997.80
2019-03-05T08:10:04.963Z,997.77
2019-03-05T08:11:04.964Z,997.83
2019-03-05T08:12:04.937Z,997.82
2019-03-05T08:13:04.942Z,997.87
2019-03-05T08:14:04.949Z,997.87
2019-03-05T08:15:04.916Z,997.84
2019-03-05T08:16:04.913Z,997.91
2019-03-05T08:17:04.938Z,997.82
2019-03-05T08:18:04.897Z,997.79
2019-03-05T08:19:04.887Z,997.72
2019-03-05T08:20:04.919Z,997.73
2019-03-05T08:21:04.877Z,997.81
2019-03-05T08:22:04.895Z,997.78
2019-03-05T08:23:04.856Z,997.90
2019-03-05T08:24:04.862Z,997.82
2019-03-05T08:25:04.851Z,997.84
2019-03-05T08:26:04.841Z,997.86
2019-03-05T08:27:04.839Z,997.86
2019-03-05T08:28:04.823Z,997.85
2019-03-05T08:29:04.837Z,997.83
2019-03-05T08:30:13.713Z,997.88
2019-03-05T08:31:04.800Z,997.89
2019-03-05T08:32:04.793Z,997.85
2019-03-05T08:33:04.791Z,997.78
2019-03-05T08:34:04.777Z,997.81
2019-03-05T08:35:04.778Z,997.76
2019-03-05T08:36:04.783Z,997.71
2019-03-05T08:37:04.772Z,997.76
2019-03-05T08:38:04.754Z,997.72
2019-03-05T08:39:04.743Z,997.75
2019-03-05T08:40:04.740Z,997.78
2019-03-05T08:41:04.721Z,997.79
2019-03-05T08:42:04.731Z,997.81
2019-03-05T08:43:04.728Z,997.74
2019-03-05T08:44:04.720Z,997.77
2019-03-05T08:45:04.714Z,997.78
2019-03-05T08:46:04.702Z,997.75
2019-03-05T08:47:04.715Z,997.77
2019-03-05T08:48:04.703Z,997.82
2019-03-05T08:49:04.693Z,997.69
2019-03-05T08:50:04.671Z,997.74
2019-03-05T08:51:04.652Z,997.58
2019-03-05T08:52:04.640Z,997.70
2019-03-05T08:53:04.650Z,997.64
2019-03-05T08:54:04.630Z,997.64
2019-03-05T08:55:04.625Z,997.59
2019-03-05T08:56:04.623Z,997.61
2019-03-05T08:57:04.619Z,997.57
2019-03-05T08:58:04.615Z,997.65
2019-03-05T08:59:04.598Z,997.55
2019-03-05T09:00:04.591Z,997.50
2019-03-05T09:01:04.577Z,997.61
2019-03-05T09:02:04.587Z,997.58
2019-03-05T09:03:04.566Z,997.58
2019-03-05T09:04:04.568Z,997.56
2019-03-05T09:05:04.558Z,997.63
2019-03-05T09:06:04.572Z,997.51
2019-03-05T09:07:04.531Z,997.62
2019-03-05T09:08:04.530Z,997.53
2019-03-05T09:09:04.523Z,997.55
2019-03-05T09:10:04.516Z,997.58
2019-03-05T09:11:04.557Z,997.54
2019-03-05T09:12:04.532Z,997.51
2019-03-05T09:13:04.502Z,997.54
2019-03-05T09:14:04.530Z,997.49
2019-03-05T09:15:04.538Z,997.44
2019-03-05T09:16:04.533Z,997.49
2019-03-05T09:17:04.483Z,997.53
2019-03-05T09:18:04.472Z,997.52
2019-03-05T09:19:04.461Z,997.47
2019-03-05T09:20:04.473Z,997.52
2019-03-05T09:21:04.482Z,997.43
2019-03-05T09:22:04.464Z,997.43
2019-03-05T09:23:04.434Z,997.46
2019-03-05T09:24:04.445Z,997.50
2019-03-05T09:25:04.441Z,997.56
2019-03-05T09:26:04.495Z,997.58
2019-03-05T09:27:04.417Z,997.56
2019-03-05T09:28:04.438Z,997.41
2019-03-05T09:29:04.489Z,997.43
2019-03-05T09:30:04.444Z,997.58
2019-03-05T09:31:04.371Z,997.63
2019-03-05T09:32:04.378Z,997.54
2019-03-05T09:33:04.342Z,997.62
2019-03-05T09:34:04.400Z,997.63
2019-03-05T09:35:04.338Z,997.65
2019-03-05T09:36:04.377Z,997.66
2019-03-05T09:37:04.349Z,997.66
2019-03-05T09:38:04.327Z,997.56
2019-03-05T09:39:04.301Z,997.65
2019-03-05T09:40:04.321Z,997.65
2019-03-05T09:41:04.286Z,997.69
2019-03-05T09:42:04.279Z,997.68
2019-03-05T09:43:04.291Z,997.65
2019-03-05T09:44:04.259Z,997.66
2019-03-05T09:45:04.254Z,997.64
2019-03-05T09:46:04.251Z,997.69
2019-03-05T09:47:04.240Z,997.69
2019-03-05T09:48:04.233Z,997.55
2019-03-05T09:49:04.250Z,997.56
2019-03-05T09:50:04.211Z,997.59
2019-03-05T09:51:04.217Z,997.57
2019-03-05T09:52:04.205Z,997.60
2019-03-05T09:53:04.196Z,997.63
2019-03-05T09:54:04.181Z,997.57
2019-03-05T09:55:04.181Z,997.60
2019-03-05T09:56:04.181Z,997.65
2019-03-05T09:57:04.185Z,997.61
2019-03-05T09:58:08.444Z,997.74
2019-03-05T09:59:04.151Z,997.67
2019-03-05T10:00:04.157Z,997.74
2019-03-05T10:01:04.140Z,997.79
2019-03-05T10:02:04.153Z,997.80
2019-03-05T10:03:04.128Z,997.88
2019-03-05T10:04:04.135Z,997.75
2019-03-05T10:05:04.101Z,997.84
2019-03-05T10:06:04.096Z,997.88
2019-03-05T10:07:04.108Z,997.88
2019-03-05T10:08:04.093Z,997.93
2019-03-05T10:09:04.088Z,997.77
2019-03-05T10:10:04.109Z,997.79
2019-03-05T10:11:04.066Z,997.78
2019-03-05T10:12:04.058Z,997.84
2019-03-05T10:13:04.672Z,997.57
2019-03-05T10:14:04.040Z,997.84
2019-03-05T10:15:04.023Z,997.63
2019-03-05T10:16:04.017Z,997.85
2019-03-05T10:17:04.023Z,997.74
2019-03-05T10:18:12.059Z,997.68
2019-03-05T10:19:04.512Z,997.69
2019-03-05T10:20:03.997Z,997.76
2019-03-05T10:21:03.986Z,997.65
2019-03-05T10:22:03.970Z,997.83
2019-03-05T10:23:03.962Z,997.79
2019-03-05T10:24:10.507Z,997.82
2019-03-05T10:25:06.307Z,997.74
2019-03-05T10:26:03.944Z,997.70
2019-03-05T10:27:03.929Z,997.86
2019-03-05T10:28:03.923Z,997.89
2019-03-05T10:29:03.922Z,997.69
2019-03-05T10:30:03.904Z,997.76
2019-03-05T10:31:03.934Z,997.72
2019-03-05T10:32:03.901Z,997.61
2019-03-05T10:33:03.902Z,997.75
2019-03-05T10:34:03.868Z,997.75
2019-03-05T10:35:03.871Z,997.71
2019-03-05T10:36:03.890Z,997.61
2019-03-05T10:37:12.342Z,997.68
2019-03-05T10:38:03.865Z,997.67
2019-03-05T10:39:03.830Z,997.62
2019-03-05T10:40:03.823Z,997.61
2019-03-05T10:41:03.813Z,997.60
2019-03-05T10:42:03.807Z,997.55
2019-03-05T10:43:08.366Z,997.60
2019-03-05T10:44:03.842Z,997.62
2019-03-05T10:45:03.788Z,997.61
2019-03-05T10:46:03.783Z,997.58
2019-03-05T10:47:03.800Z,997.59
2019-03-05T10:48:03.761Z,997.53
2019-03-05T10:49:03.777Z,997.48
2019-03-05T10:50:14.826Z,997.54
2019-03-05T10:51:03.731Z,997.55
2019-03-05T10:52:03.767Z,997.63
2019-03-05T10:53:03.731Z,997.51
2019-03-05T10:54:03.710Z,997.48
2019-03-05T10:55:03.726Z,997.49
2019-03-05T10:56:03.702Z,997.52
2019-03-05T10:57:03.706Z,997.48
2019-03-05T10:58:03.701Z,997.50
2019-03-05T10:59:05.402Z,997.50
2019-03-05T11:00:03.662Z,997.58
2019-03-05T11:01:03.652Z,997.57
2019-03-05T11:02:03.641Z,997.56
2019-03-05T11:03:03.637Z,997.50
2019-03-05T11:04:03.635Z,997.55
2019-03-05T11:05:03.670Z,997.50
2019-03-05T11:06:03.629Z,997.61
2019-03-05T11:07:03.615Z,997.50
2019-03-05T11:08:03.605Z,997.52
2019-03-05T11:09:03.631Z,997.58
2019-03-05T11:10:03.587Z,997.52
2019-03-05T11:11:13.043Z,997.49
2019-03-05T11:12:03.589Z,997.48
2019-03-05T11:13:03.616Z,997.45
2019-03-05T11:14:03.599Z,997.43
2019-03-05T11:15:03.581Z,997.48
2019-03-05T11:16:03.531Z,997.46
2019-03-05T11:17:03.527Z,997.44
2019-03-05T11:18:03.524Z,997.50
2019-03-05T11:19:03.553Z,997.50
2019-03-05T11:20:03.509Z,997.37
2019-03-05T11:21:03.525Z,997.48
2019-03-05T11:22:03.520Z,997.44
2019-03-05T11:23:03.477Z,997.43
2019-03-05T11:24:03.468Z,997.31
2019-03-05T11:25:03.471Z,997.39
2019-03-05T11:26:03.477Z,997.39
2019-03-05T11:27:03.466Z,997.50
2019-03-05T11:28:03.448Z,997.39
2019-03-05T11:29:03.505Z,997.48
2019-03-05T11:30:03.488Z,997.46
2019-03-05T11:31:03.421Z,997.53
2019-03-05T11:32:03.415Z,997.51
2019-03-05T11:33:03.414Z,997.52
2019-03-05T11:34:03.413Z,997.60
2019-03-05T11:35:03.415Z,997.49
2019-03-05T11:36:03.374Z,997.45
2019-03-05T11:37:03.435Z,997.52
2019-03-05T11:38:03.361Z,997.47
2019-03-05T11:39:03.359Z,997.49
2019-03-05T11:40:03.348Z,997.50
2019-03-05T11:41:03.344Z,997.53
2019-03-05T11:42:03.325Z,997.42
2019-03-05T11:43:03.320Z,997.46
2019-03-05T11:44:03.312Z,997.44
2019-03-05T11:45:07.666Z,997.42
2019-03-05T11:46:03.295Z,997.40
2019-03-05T11:47:03.294Z,997.37
2019-03-05T11:48:03.292Z,997.41
2019-03-05T11:49:03.280Z,997.31
2019-03-05T11:50:03.261Z,997.33
2019-03-05T11:51:03.282Z,997.32
2019-03-05T11:52:03.245Z,997.33
2019-03-05T11:53:03.330Z,997.21
2019-03-05T11:54:03.242Z,997.34
2019-03-05T11:55:03.250Z,997.29
2019-03-05T11:56:03.307Z,997.30
2019-03-05T11:57:03.202Z,997.39
2019-03-05T11:58:03.195Z,997.26
2019-03-05T11:59:03.182Z,997.34
2019-03-05T12:00:03.196Z,997.38
2019-03-05T12:01:03.204Z,997.38
2019-03-05T12:02:03.192Z,997.37
2019-03-05T12:03:03.146Z,997.37
2019-03-05T12:04:03.138Z,997.37
2019-03-05T12:05:03.150Z,997.45
2019-03-05T12:06:03.127Z,997.38
2019-03-05T12:07:03.121Z,997.38
2019-03-05T12:08:03.125Z,997.47
2019-03-05T12:09:03.105Z,997.49
2019-03-05T12:10:03.124Z,997.49
2019-03-05T12:11:03.087Z,997.47
2019-03-05T12:12:03.089Z,997.46
2019-03-05T12:13:03.069Z,997.47
2019-03-05T12:14:03.069Z,997.41
2019-03-05T12:15:03.080Z,997.41
2019-03-05T12:16:03.084Z,997.41
2019-03-05T12:17:03.042Z,997.39
2019-03-05T12:18:03.086Z,997.43
2019-03-05T12:19:03.021Z,997.39
2019-03-05T12:20:03.007Z,997.47
2019-03-05T12:21:03.019Z,997.47
2019-03-05T12:22:03.015Z,997.49
2019-03-05T12:23:06.626Z,997.55
2019-03-05T12:24:03.025Z,997.45
2019-03-05T12:25:03.659Z,997.53
2019-03-05T12:26:02.972Z,997.54
2019-03-05T12:27:02.960Z,997.52
2019-03-05T12:28:10.272Z,997.49
2019-03-05T12:29:02.974Z,997.55
2019-03-05T12:30:02.936Z,997.54
2019-03-05T12:31:02.934Z,997.53
2019-03-05T12:32:02.947Z,997.49
2019-03-05T12:33:02.912Z,997.50
2019-03-05T12:34:02.908Z,997.44
2019-03-05T12:35:02.934Z,997.52
2019-03-05T12:36:02.912Z,997.55
2019-03-05T12:37:02.878Z,997.54
2019-03-05T12:38:02.922Z,997.60
2019-03-05T12:39:02.865Z,997.49
2019-03-05T12:40:02.858Z,997.54
2019-03-05T12:41:02.898Z,997.49
2019-03-05T12:42:03.716Z,997.50
2019-03-05T12:43:02.893Z,997.51
2019-03-05T12:44:05.263Z,997.52
2019-03-05T12:45:02.822Z,997.55
2019-03-05T12:46:02.806Z,997.61
2019-03-05T12:47:02.813Z,997.58